createdAt,value
2022-09-01T00:02:20.025Z,15.80
2022-09-01T00:04:47.531Z,15.80
2022-09-01T00:07:14.693Z,15.70
2022-09-01T00:09:41.485Z,15.70
2022-09-01T00:12:09.364Z,15.70
2022-09-01T00:14:41.634Z,15.70
2022-09-01T00:17:10.720Z,15.70
2022-09-01T00:19:40.047Z,15.70
2022-09-01T00:22:08.226Z,15.70
2022-09-01T00:24:35.377Z,15.60
2022-09-01T00:27:02.120Z,15.60
2022-09-01T00:29:29.225Z,15.60
2022-09-01T00:31:55.983Z,15.60
2022-09-01T00:34:23.095Z,15.60
2022-09-01T00:36:50.027Z,15.60
2022-09-01T00:39:16.824Z,15.60
2022-09-01T00:41:44.981Z,15.60
2022-09-01T00:44:16.516Z,15.60
2022-09-01T00:46:50.327Z,15.60
2022-09-01T00:49:36.414Z,15.50
2022-09-01T00:52:09.490Z,15.50
2022-09-01T00:54:41.278Z,15.60
2022-09-01T00:57:09.994Z,15.60
2022-09-01T00:59:42.936Z,15.50
2022-09-01T01:02:10.927Z,15.50
2022-09-01T01:04:37.986Z,15.50
2022-09-01T01:07:06.592Z,15.50
2022-09-01T01:09:38.695Z,15.50
2022-09-01T01:12:06.781Z,15.50
2022-09-01T01:14:36.824Z,15.50
2022-09-01T01:17:04.033Z,15.50
2022-09-01T01:20:03.862Z,15.50
2022-09-01T01:23:03.784Z,15.50
2022-09-01T01:25:32.450Z,15.50
2022-09-01T01:28:22.304Z,15.50
2022-09-01T01:31:01.585Z,15.50
2022-09-01T01:33:40.633Z,15.50
2022-09-01T01:36:12.991Z,15.50
2022-09-01T01:38:43.116Z,15.50
2022-09-01T01:41:11.745Z,15.50
2022-09-01T01:43:39.540Z,15.50
2022-09-01T01:46:09.577Z,15.40
2022-09-01T01:48:41.535Z,15.40
2022-09-01T01:51:11.801Z,15.40
2022-09-01T01:53:40.845Z,15.40
2022-09-01T01:56:08.958Z,15.40
2022-09-01T01:58:36.461Z,15.40
2022-09-01T02:01:11.855Z,15.40
2022-09-01T02:03:39.446Z,15.40
2022-09-01T02:06:09.576Z,15.40
2022-09-01T02:08:38.622Z,15.40
2022-09-01T02:11:07.022Z,15.40
2022-09-01T02:13:35.119Z,15.40
2022-09-01T02:16:12.984Z,15.30
2022-09-01T02:18:47.946Z,15.30
2022-09-01T02:21:19.572Z,15.30
2022-09-01T02:23:49.611Z,15.30
2022-09-01T02:26:18.980Z,15.30
2022-09-01T02:28:55.361Z,15.30
2022-09-01T02:31:28.043Z,15.20
2022-09-01T02:33:55.970Z,15.20
2022-09-01T02:36:25.608Z,15.20
2022-09-01T02:38:56.506Z,15.20
2022-09-01T02:41:25.065Z,15.10
2022-09-01T02:43:52.065Z,15.10
2022-09-01T02:46:23.587Z,15.10
2022-09-01T02:48:52.309Z,15.10
2022-09-01T02:51:22.574Z,15.10
2022-09-01T02:53:52.151Z,15.10
2022-09-01T02:56:25.001Z,15.10
2022-09-01T02:58:52.391Z,15.10
2022-09-01T03:01:24.779Z,15.10
2022-09-01T03:03:55.348Z,15.00
2022-09-01T03:06:24.399Z,15.00
2022-09-01T03:08:59.566Z,15.00
2022-09-01T03:11:29.483Z,15.00
2022-09-01T03:13:56.682Z,15.00
2022-09-01T03:16:23.862Z,15.00
2022-09-01T03:18:52.122Z,15.00
2022-09-01T03:21:20.440Z,15.00
2022-09-01T03:23:48.730Z,15.00
2022-09-01T03:26:18.657Z,15.00
2022-09-01T03:28:46.460Z,14.90
2022-09-01T03:31:13.324Z,14.90
2022-09-01T03:33:40.854Z,14.90
2022-09-01T03:36:19.598Z,14.90
2022-09-01T03:38:49.104Z,14.80
2022-09-01T03:41:21.575Z,14.80
2022-09-01T03:43:49.341Z,14.80
2022-09-01T03:46:23.022Z,14.80
2022-09-01T03:48:58.519Z,14.70
2022-09-01T03:51:27.068Z,14.70
2022-09-01T03:53:55.042Z,14.70
2022-09-01T03:56:28.209Z,14.70
2022-09-01T03:58:57.863Z,14.60
2022-09-01T04:01:27.875Z,14.60
2022-09-01T04:03:55.265Z,14.50
2022-09-01T04:06:30.898Z,14.50
2022-09-01T04:09:02.480Z,14.50
2022-09-01T04:11:31.907Z,14.50
2022-09-01T04:13:59.558Z,14.40
2022-09-01T04:16:51.551Z,14.40
2022-09-01T04:19:25.111Z,14.40
2022-09-01T04:21:57.616Z,14.40
2022-09-01T04:24:31.026Z,14.40
2022-09-01T04:27:02.107Z,14.30
2022-09-01T04:29:29.988Z,14.40
2022-09-01T04:32:05.497Z,14.40
2022-09-01T04:34:41.623Z,14.40
2022-09-01T04:37:21.482Z,14.40
2022-09-01T04:39:57.395Z,14.50
2022-09-01T04:42:29.288Z,14.50
2022-09-01T04:44:58.334Z,14.50
2022-09-01T04:47:35.943Z,14.60
2022-09-01T04:50:14.148Z,14.60
2022-09-01T04:52:44.633Z,14.70
2022-09-01T04:55:20.920Z,14.70
2022-09-01T04:57:49.727Z,14.80
2022-09-01T05:00:22.952Z,14.80
2022-09-01T05:03:04.561Z,14.90
2022-09-01T05:05:50.977Z,14.90
2022-09-01T05:08:24.282Z,14.90
2022-09-01T05:10:55.754Z,14.90
2022-09-01T05:13:39.635Z,14.90
2022-09-01T05:16:13.236Z,15.00
2022-09-01T05:18:45.534Z,15.00
2022-09-01T05:21:16.271Z,15.00
2022-09-01T05:23:44.292Z,15.00
2022-09-01T05:26:18.158Z,15.10
2022-09-01T05:28:48.191Z,15.10
2022-09-01T05:31:28.418Z,15.10
2022-09-01T05:34:49.921Z,15.10
2022-09-01T05:37:17.201Z,15.10
2022-09-01T05:42:40.614Z,15.10
2022-09-01T05:45:23.704Z,15.20
2022-09-01T05:52:17.276Z,15.10
2022-09-01T05:59:24.697Z,15.20
2022-09-01T06:03:04.845Z,15.30
2022-09-01T06:09:47.399Z,15.20
2022-09-01T06:16:47.613Z,15.30
2022-09-01T06:26:50.955Z,15.40
2022-09-01T06:33:55.258Z,15.40
2022-09-01T06:37:16.429Z,15.50
2022-09-01T06:43:37.663Z,15.60
2022-09-01T06:50:07.909Z,15.80
2022-09-01T07:00:43.627Z,16.00
2022-09-01T07:03:30.208Z,16.00
2022-09-01T07:27:15.444Z,16.50
2022-09-01T07:30:01.974Z,16.60
2022-09-01T07:33:41.530Z,16.70
2022-09-01T07:51:42.117Z,17.00
2022-09-01T07:54:13.965Z,17.00
2022-09-01T07:56:50.761Z,17.10
2022-09-01T07:59:28.504Z,17.20
2022-09-01T08:02:26.587Z,17.30
2022-09-01T08:06:01.763Z,17.30
2022-09-01T08:14:22.772Z,17.50
2022-09-01T08:17:34.804Z,17.50
2022-09-01T08:20:28.388Z,17.60
2022-09-01T08:23:26.437Z,17.70
2022-09-01T08:26:20.298Z,17.70
2022-09-01T08:31:43.752Z,17.80
2022-09-01T08:34:43.133Z,17.90
2022-09-01T08:40:04.092Z,18.00
2022-09-01T08:43:25.035Z,18.00
2022-09-01T08:46:28.810Z,18.10
2022-09-01T08:49:47.915Z,18.10
2022-09-01T08:52:53.015Z,18.20
2022-09-01T08:55:58.516Z,18.20
2022-09-01T08:58:50.798Z,18.20
2022-09-01T09:02:16.378Z,18.30
2022-09-01T09:05:21.399Z,18.40
2022-09-01T09:08:19.218Z,18.50
2022-09-01T09:11:19.295Z,18.50
2022-09-01T09:17:46.678Z,18.50
2022-09-01T09:20:41.084Z,18.60
2022-09-01T09:23:48.643Z,18.60
2022-09-01T09:26:47.691Z,18.70
2022-09-01T09:29:27.311Z,18.70
2022-09-01T09:34:52.352Z,18.90
2022-09-01T09:37:46.961Z,18.90
2022-09-01T09:40:47.919Z,18.90
2022-09-01T09:43:42.217Z,19.00
2022-09-01T09:46:36.831Z,19.10
2022-09-01T09:49:42.342Z,19.10
2022-09-01T09:52:21.480Z,19.10
2022-09-01T09:55:22.253Z,19.20
2022-09-01T09:58:13.725Z,19.20
2022-09-01T10:00:57.820Z,19.20
2022-09-01T10:03:58.998Z,19.30
2022-09-01T10:06:41.951Z,19.30
2022-09-01T10:09:49.989Z,19.30
2022-09-01T10:12:29.705Z,19.30
2022-09-01T10:15:14.135Z,19.30
2022-09-01T10:18:32.581Z,19.30
2022-09-01T10:21:53.549Z,19.40
2022-09-01T10:24:45.862Z,19.40
2022-09-01T10:27:44.763Z,19.60
2022-09-01T10:30:37.250Z,19.60
2022-09-01T10:33:30.419Z,19.60
2022-09-01T10:36:08.785Z,19.60
2022-09-01T10:38:39.943Z,19.60
2022-09-01T10:41:14.307Z,19.60
2022-09-01T10:43:58.711Z,19.70
2022-09-01T10:46:40.655Z,19.70
2022-09-01T10:52:19.210Z,19.80
2022-09-01T10:55:00.310Z,19.80
2022-09-01T11:01:49.268Z,19.90
2022-09-01T11:04:40.142Z,20.00
2022-09-01T11:08:00.467Z,20.10
2022-09-01T11:11:31.574Z,20.10
2022-09-01T11:14:51.409Z,20.10
2022-09-01T11:17:47.747Z,20.10
2022-09-01T11:20:45.927Z,20.10
2022-09-01T11:23:30.994Z,20.20
2022-09-01T11:26:30.109Z,20.30
2022-09-01T11:29:40.673Z,20.20
2022-09-01T11:32:58.609Z,20.20
2022-09-01T11:35:33.267Z,20.20
2022-09-01T11:38:14.346Z,20.20
2022-09-01T11:40:42.092Z,20.20
2022-09-01T11:44:22.279Z,20.30
2022-09-01T11:47:03.881Z,20.30
2022-09-01T11:50:03.055Z,20.30
2022-09-01T11:52:41.754Z,20.40
2022-09-01T11:55:10.414Z,20.50
2022-09-01T11:58:25.310Z,20.60
2022-09-01T12:01:47.322Z,20.60
2022-09-01T12:05:08.078Z,20.70
2022-09-01T12:07:50.207Z,20.70
2022-09-01T12:14:20.215Z,20.70
2022-09-01T12:17:13.450Z,20.70
2022-09-01T12:23:40.209Z,20.70
2022-09-01T12:27:17.945Z,20.70
2022-09-01T12:30:58.907Z,20.80
2022-09-01T12:33:58.129Z,20.80
2022-09-01T12:36:35.905Z,20.70
2022-09-01T12:40:04.501Z,20.80
2022-09-01T12:45:46.723Z,20.80
2022-09-01T12:48:33.466Z,20.90
2022-09-01T12:51:29.227Z,20.90
2022-09-01T12:54:04.722Z,20.90
2022-09-01T12:57:06.510Z,20.90
2022-09-01T12:59:36.140Z,21.00
2022-09-01T13:03:10.813Z,21.00
2022-09-01T13:05:53.467Z,21.10
2022-09-01T13:08:34.848Z,21.20
2022-09-01T13:11:15.174Z,21.20
2022-09-01T13:14:54.641Z,21.20
2022-09-01T13:17:55.233Z,21.20
2022-09-01T13:20:44.423Z,21.30
2022-09-01T13:24:28.706Z,21.30
2022-09-01T13:27:22.082Z,21.20
2022-09-01T13:29:56.253Z,21.20
2022-09-01T13:32:26.236Z,21.20
2022-09-01T13:35:24.681Z,21.20
2022-09-01T13:38:01.608Z,21.20
2022-09-01T13:43:34.269Z,21.20
2022-09-01T13:46:25.357Z,21.20
2022-09-01T13:49:05.008Z,21.20
2022-09-01T13:56:32.890Z,21.10
2022-09-01T14:07:02.153Z,21.30
2022-09-01T14:12:22.980Z,21.50
2022-09-01T14:15:15.931Z,21.70
2022-09-01T14:17:46.081Z,21.80
2022-09-01T14:20:43.023Z,22.00
2022-09-01T14:24:07.393Z,22.10
2022-09-01T14:27:03.911Z,22.20
2022-09-01T14:29:30.797Z,22.40
2022-09-01T14:36:47.153Z,22.60
2022-09-01T14:42:16.150Z,22.80
2022-09-01T14:45:15.464Z,22.90
2022-09-01T14:50:50.764Z,23.10
2022-09-01T14:53:55.369Z,23.20
2022-09-01T14:56:37.613Z,23.40
2022-09-01T15:02:42.249Z,23.60
2022-09-01T15:05:39.471Z,23.70
2022-09-01T15:08:20.250Z,23.80
2022-09-01T15:10:47.397Z,23.90
2022-09-01T15:14:21.673Z,23.90
2022-09-01T15:16:48.505Z,24.00
2022-09-01T15:20:27.689Z,24.00
2022-09-01T15:22:55.686Z,24.10
2022-09-01T15:25:32.469Z,24.20
2022-09-01T15:29:13.913Z,24.20
2022-09-01T15:32:09.407Z,24.30
2022-09-01T15:39:37.735Z,24.50
2022-09-01T15:45:21.172Z,24.70
2022-09-01T15:48:12.606Z,24.80
2022-09-01T15:50:42.490Z,24.90
2022-09-01T15:53:19.157Z,24.80
2022-09-01T16:00:22.385Z,24.90
2022-09-01T16:07:45.801Z,25.10
2022-09-01T16:13:08.865Z,25.00
2022-09-01T16:20:05.730Z,25.00
2022-09-01T16:26:52.114Z,25.00
2022-09-01T16:29:56.687Z,24.90
2022-09-01T16:32:37.057Z,24.90
2022-09-01T16:35:21.386Z,24.70
2022-09-01T16:43:16.776Z,24.60
2022-09-01T16:58:22.825Z,24.30
2022-09-01T17:13:16.430Z,23.50
2022-09-01T17:16:12.832Z,23.30
2022-09-01T17:18:50.341Z,23.10
2022-09-01T17:41:47.040Z,22.20
2022-09-01T17:49:03.264Z,21.90
2022-09-01T17:52:29.375Z,21.80
2022-09-01T18:05:50.630Z,21.40
2022-09-01T18:09:34.580Z,21.10
2022-09-01T18:12:53.047Z,21.00
2022-09-01T18:16:22.697Z,20.90
2022-09-01T18:26:27.173Z,20.70
2022-09-01T18:37:26.908Z,20.50
2022-09-01T18:45:11.539Z,20.30
2022-09-01T18:53:51.865Z,20.20
2022-09-01T18:57:10.235Z,20.10
2022-09-01T19:00:18.750Z,20.10
2022-09-01T19:03:18.939Z,20.00
2022-09-01T19:06:32.155Z,20.00
2022-09-01T19:09:19.577Z,19.90
2022-09-01T19:19:39.109Z,19.80
2022-09-01T19:25:43.880Z,19.70
2022-09-01T19:51:50.447Z,19.40
2022-09-01T19:54:30.711Z,19.30
2022-09-01T19:57:18.070Z,19.30
2022-09-01T20:07:36.876Z,19.10
2022-09-01T20:14:29.214Z,19.00
2022-09-01T20:23:28.251Z,18.90
2022-09-01T20:26:12.422Z,18.80
2022-09-01T20:30:15.531Z,18.70
2022-09-01T20:33:16.583Z,18.70
2022-09-01T20:36:35.051Z,18.60
2022-09-01T20:40:08.748Z,18.60
2022-09-01T20:43:22.979Z,18.50
2022-09-01T20:45:50.677Z,18.30
2022-09-01T20:48:26.469Z,18.30
2022-09-01T20:51:15.003Z,18.20
2022-09-01T20:54:00.404Z,18.20
2022-09-01T20:56:51.887Z,18.20
2022-09-01T20:59:51.868Z,18.10
2022-09-01T21:02:34.698Z,18.10
2022-09-01T21:05:44.680Z,18.00
2022-09-01T21:08:17.909Z,18.00
2022-09-01T21:10:47.636Z,17.90
2022-09-01T21:13:44.269Z,17.90
2022-09-01T21:16:26.694Z,17.90
2022-09-01T21:19:33.708Z,17.80
2022-09-01T21:22:06.298Z,17.80
2022-09-01T21:24:33.678Z,17.70
2022-09-01T21:27:07.209Z,17.70
2022-09-01T21:29:43.850Z,17.70
2022-09-01T21:32:13.761Z,17.70
2022-09-01T21:34:40.739Z,17.60
2022-09-01T21:37:07.425Z,17.60
2022-09-01T21:39:34.227Z,17.50
2022-09-01T21:42:01.163Z,17.50
2022-09-01T21:44:29.565Z,17.50
2022-09-01T21:46:57.529Z,17.40
2022-09-01T21:49:24.418Z,17.40
2022-09-01T21:51:51.126Z,17.40
2022-09-01T21:54:18.994Z,17.40
2022-09-01T21:56:46.371Z,17.40
2022-09-01T21:59:16.968Z,17.30
2022-09-01T22:01:44.854Z,17.30
2022-09-01T22:04:12.057Z,17.30
2022-09-01T22:06:40.166Z,17.30
2022-09-01T22:09:20.802Z,17.30
2022-09-01T22:11:49.286Z,17.30
2022-09-01T22:14:16.667Z,17.30
2022-09-01T22:16:43.934Z,17.30
2022-09-01T22:19:10.760Z,17.30
2022-09-01T22:21:38.421Z,17.30
2022-09-01T22:24:06.195Z,17.30
2022-09-01T22:26:33.721Z,17.20
2022-09-01T22:29:02.240Z,17.20
2022-09-01T22:31:31.052Z,17.20
2022-09-01T22:33:58.348Z,17.20
2022-09-01T22:36:31.818Z,17.20
2022-09-01T22:38:59.658Z,17.10
2022-09-01T22:41:28.339Z,17.10
2022-09-01T22:43:55.137Z,17.10
2022-09-01T22:46:22.378Z,17.10
2022-09-01T22:48:49.404Z,17.00
2022-09-01T22:51:17.488Z,17.00
2022-09-01T22:53:45.835Z,17.00
2022-09-01T22:56:20.267Z,17.00
2022-09-01T22:58:48.730Z,17.00
2022-09-01T23:01:20.285Z,16.90
2022-09-01T23:03:47.642Z,16.90
2022-09-01T23:06:27.630Z,16.80
2022-09-01T23:08:56.017Z,16.80
2022-09-01T23:11:23.067Z,16.70
2022-09-01T23:13:49.905Z,16.70
2022-09-01T23:16:16.993Z,16.70
2022-09-01T23:18:46.780Z,16.70
2022-09-01T23:21:16.159Z,16.70
2022-09-01T23:23:42.930Z,16.60
2022-09-01T23:26:11.532Z,16.60
2022-09-01T23:28:40.270Z,16.50
2022-09-01T23:31:09.897Z,16.50
2022-09-01T23:33:36.896Z,16.50
2022-09-01T23:36:09.717Z,16.50
2022-09-01T23:38:37.474Z,16.40
2022-09-01T23:41:10.423Z,16.40
2022-09-01T23:43:38.046Z,16.40
2022-09-01T23:46:05.587Z,16.40
2022-09-01T23:48:32.856Z,16.30
2022-09-01T23:51:08.438Z,16.30
2022-09-01T23:53:36.416Z,16.30
2022-09-01T23:56:08.054Z,16.20
2022-09-01T23:58:34.743Z,16.20
